createdAt,value
2019-01-03T00:00:56.718Z,1.50
2019-01-03T00:03:57.186Z,1.40
2019-01-03T00:06:39.909Z,1.30
2019-01-03T00:15:40.311Z,1.30
2019-01-03T00:18:40.481Z,1.30
2019-01-03T00:24:19.273Z,1.40
2019-01-03T00:35:43.498Z,1.50
2019-01-03T00:38:43.707Z,1.50
2019-01-03T00:41:44.354Z,1.60
2019-01-03T00:44:44.834Z,1.70
2019-01-03T00:47:45.054Z,1.70
2019-01-03T00:50:29.842Z,1.70
2019-01-03T00:56:22.970Z,1.80
2019-01-03T01:02:25.619Z,1.70
2019-01-03T01:08:33.005Z,1.70
2019-01-03T01:11:18.002Z,1.70
2019-01-03T01:14:00.662Z,1.60
2019-01-03T01:17:00.910Z,1.60
2019-01-03T01:23:08.615Z,1.60
2019-01-03T01:25:53.243Z,1.50
2019-01-03T01:28:53.672Z,1.40
2019-01-03T01:31:53.783Z,1.50
2019-01-03T01:34:39.274Z,1.50
2019-01-03T01:37:24.447Z,1.50
2019-01-03T01:40:09.033Z,1.40
2019-01-03T01:42:51.842Z,1.40
2019-01-03T01:45:34.329Z,1.40
2019-01-03T01:48:19.933Z,1.50
2019-01-03T01:51:20.131Z,1.40
2019-01-03T01:57:05.425Z,1.40
2019-01-03T01:59:50.886Z,1.40
2019-01-03T02:02:32.874Z,1.30
2019-01-03T02:05:15.290Z,1.30
2019-01-03T02:08:15.571Z,1.30
2019-01-03T02:11:00.161Z,1.30
2019-01-03T02:14:00.846Z,1.30
2019-01-03T02:16:46.246Z,1.30
2019-01-03T02:19:46.980Z,1.30
2019-01-03T02:25:41.839Z,1.20
2019-01-03T02:31:44.786Z,1.30
2019-01-03T02:34:30.178Z,1.30
2019-01-03T02:37:30.925Z,1.40
2019-01-03T02:43:20.586Z,1.50
2019-01-03T02:46:20.805Z,1.40
2019-01-03T02:49:21.379Z,1.50
2019-01-03T02:52:22.025Z,1.50
2019-01-03T02:55:22.503Z,1.40
2019-01-03T02:58:05.195Z,1.60
2019-01-03T03:01:05.251Z,1.60
2019-01-03T03:04:06.017Z,1.60
2019-01-03T03:07:06.307Z,1.70
2019-01-03T03:10:07.137Z,1.60
2019-01-03T03:12:49.805Z,1.60
2019-01-03T03:18:29.549Z,1.70
2019-01-03T03:21:29.478Z,1.70
2019-01-03T03:24:12.028Z,1.70
2019-01-03T03:27:11.995Z,1.70
2019-01-03T03:30:12.049Z,1.70
2019-01-03T03:32:54.028Z,1.70
2019-01-03T03:35:39.329Z,1.80
2019-01-03T03:41:32.486Z,1.80
2019-01-03T03:47:39.769Z,1.90
2019-01-03T03:50:39.994Z,1.90
2019-01-03T03:53:40.696Z,1.80
2019-01-03T03:56:22.642Z,1.90
2019-01-03T03:59:23.008Z,1.90
2019-01-03T04:02:04.872Z,2.00
2019-01-03T04:05:04.887Z,2.00
2019-01-03T04:10:57.015Z,2.00
2019-01-03T04:16:43.010Z,2.10
2019-01-03T04:22:37.679Z,2.10
2019-01-03T04:28:40.634Z,2.10
2019-01-03T04:31:22.555Z,2.10
2019-01-03T04:34:05.325Z,2.10
2019-01-03T04:36:47.825Z,2.10
2019-01-03T04:42:43.428Z,2.00
2019-01-03T04:45:28.603Z,2.00
2019-01-03T04:48:28.630Z,2.00
2019-01-03T04:54:35.650Z,2.00
2019-01-03T04:57:36.326Z,2.00
2019-01-03T05:00:36.672Z,2.00
2019-01-03T05:06:29.430Z,1.90
2019-01-03T05:09:12.282Z,2.10
2019-01-03T05:18:09.436Z,2.00
2019-01-03T05:21:09.438Z,2.10
2019-01-03T05:23:57.414Z,2.10
2019-01-03T05:26:40.975Z,2.20
2019-01-03T05:32:26.258Z,2.20
2019-01-03T05:35:26.402Z,2.10
2019-01-03T05:41:05.232Z,2.20
2019-01-03T05:44:05.975Z,2.10
2019-01-03T05:50:13.160Z,2.20
2019-01-03T05:53:13.243Z,2.20
2019-01-03T05:56:13.667Z,2.10
2019-01-03T05:58:55.751Z,2.00
2019-01-03T06:01:41.335Z,2.10
2019-01-03T06:04:23.220Z,2.10
2019-01-03T06:07:08.114Z,2.10
2019-01-03T06:16:08.803Z,2.00
2019-01-03T06:19:09.167Z,2.00
2019-01-03T06:21:51.253Z,1.90
2019-01-03T06:24:33.878Z,2.00
2019-01-03T06:30:22.473Z,2.00
2019-01-03T06:33:23.180Z,2.00
2019-01-03T06:36:07.792Z,1.90
2019-01-03T06:42:10.562Z,2.00
2019-01-03T06:45:10.946Z,1.90
2019-01-03T06:50:59.099Z,2.00
2019-01-03T06:53:59.196Z,2.00
2019-01-03T06:56:58.908Z,2.00
2019-01-03T06:59:59.206Z,2.10
2019-01-03T07:02:59.944Z,2.10
2019-01-03T07:05:41.801Z,2.10
2019-01-03T07:08:42.315Z,2.20
2019-01-03T07:14:45.638Z,2.20
2019-01-03T07:17:46.003Z,2.00
2019-01-03T07:20:46.709Z,2.20
2019-01-03T07:26:54.377Z,2.20
2019-01-03T07:29:36.321Z,2.20
2019-01-03T07:32:37.266Z,2.20
2019-01-03T07:35:20.066Z,2.20
2019-01-03T07:38:20.410Z,2.30
2019-01-03T07:44:14.416Z,2.20
2019-01-03T07:47:14.682Z,2.20
2019-01-03T07:50:15.512Z,2.20
2019-01-03T07:53:15.675Z,2.20
2019-01-03T07:55:58.315Z,2.30
2019-01-03T07:58:58.238Z,2.20
2019-01-03T08:01:41.073Z,2.30
2019-01-03T08:04:41.174Z,2.40
2019-01-03T08:07:41.543Z,2.20
2019-01-03T08:10:42.387Z,2.40
2019-01-03T08:13:28.041Z,2.40
2019-01-03T08:19:31.566Z,2.50
2019-01-03T08:22:16.433Z,2.50
2019-01-03T08:24:58.971Z,2.50
2019-01-03T08:27:59.601Z,2.50
2019-01-03T08:30:41.801Z,2.50
2019-01-03T08:33:42.126Z,2.40
2019-01-03T08:36:24.462Z,2.50
2019-01-03T08:42:28.349Z,2.60
2019-01-03T08:48:31.038Z,2.70
2019-01-03T08:51:15.885Z,2.70
2019-01-03T08:54:16.057Z,2.70
2019-01-03T08:57:00.858Z,2.80
2019-01-03T09:00:01.115Z,2.80
2019-01-03T09:03:01.552Z,2.80
2019-01-03T09:05:47.075Z,2.80
2019-01-03T09:11:54.845Z,3.00
2019-01-03T09:14:55.134Z,3.00
2019-01-03T09:20:32.281Z,2.90
2019-01-03T09:23:17.228Z,2.90
2019-01-03T09:26:17.563Z,2.80
2019-01-03T09:29:02.226Z,2.90
2019-01-03T09:32:02.589Z,2.90
2019-01-03T09:38:10.675Z,2.90
2019-01-03T09:40:52.682Z,3.00
2019-01-03T09:43:53.145Z,3.00
2019-01-03T09:46:33.502Z,3.00
2019-01-03T09:49:13.931Z,3.00
2019-01-03T09:51:54.722Z,3.10
2019-01-03T09:54:35.279Z,3.00
2019-01-03T09:57:16.008Z,3.10
2019-01-03T09:59:56.736Z,3.10
2019-01-03T10:02:37.302Z,3.10
2019-01-03T10:05:17.987Z,3.10
2019-01-03T10:07:58.771Z,3.00
2019-01-03T10:10:39.257Z,3.20
2019-01-03T10:13:19.998Z,3.20
2019-01-03T10:16:00.737Z,3.20
2019-01-03T10:18:41.153Z,3.30
2019-01-03T10:21:21.795Z,3.10
2019-01-03T10:24:02.490Z,3.30
2019-01-03T10:26:42.866Z,3.30
2019-01-03T10:29:23.574Z,3.30
2019-01-03T10:32:04.498Z,3.30
2019-01-03T10:34:45.186Z,3.40
2019-01-03T10:37:25.694Z,3.40
2019-01-03T10:40:06.323Z,3.40
2019-01-03T10:42:47.174Z,3.50
2019-01-03T10:45:28.039Z,3.50
2019-01-03T10:48:08.330Z,3.60
2019-01-03T10:50:49.174Z,3.50
2019-01-03T10:53:30.017Z,3.60
2019-01-03T10:56:10.782Z,3.50
2019-01-03T10:58:51.372Z,3.70
2019-01-03T11:01:32.098Z,3.70
2019-01-03T11:04:12.961Z,3.60
2019-01-03T11:06:53.566Z,3.60
2019-01-03T11:09:34.606Z,3.60
2019-01-03T11:12:14.883Z,3.60
2019-01-03T11:14:55.838Z,3.70
2019-01-03T11:17:36.242Z,3.70
2019-01-03T11:20:16.927Z,3.70
2019-01-03T11:22:57.666Z,3.70
2019-01-03T11:25:38.560Z,3.70
2019-01-03T11:28:19.162Z,3.80
2019-01-03T11:30:59.934Z,3.70
2019-01-03T11:33:40.429Z,3.70
2019-01-03T11:36:21.288Z,3.70
2019-01-03T11:39:01.806Z,3.70
2019-01-03T11:41:42.351Z,3.70
2019-01-03T11:44:22.770Z,3.80
2019-01-03T11:47:03.522Z,3.80
2019-01-03T11:49:44.378Z,3.70
2019-01-03T11:52:25.016Z,3.60
2019-01-03T11:55:05.610Z,3.70
2019-01-03T11:57:46.489Z,3.70
2019-01-03T12:00:27.182Z,3.70
2019-01-03T12:03:07.934Z,3.70
2019-01-03T12:05:48.322Z,3.70
2019-01-03T12:08:29.210Z,3.70
2019-01-03T12:11:09.839Z,3.70
2019-01-03T12:13:50.642Z,3.70
2019-01-03T12:16:31.159Z,3.80
2019-01-03T12:19:11.630Z,3.90
2019-01-03T12:21:52.096Z,3.90
2019-01-03T12:24:32.911Z,3.80
2019-01-03T12:27:13.272Z,3.80
2019-01-03T12:29:53.590Z,3.80
2019-01-03T12:32:34.394Z,3.90
2019-01-03T12:35:14.981Z,3.90
2019-01-03T12:37:55.689Z,3.90
2019-01-03T12:40:36.672Z,4.00
2019-01-03T12:43:17.397Z,4.00
2019-01-03T12:45:57.853Z,4.00
2019-01-03T12:48:38.692Z,4.00
2019-01-03T12:51:19.534Z,4.00
2019-01-03T12:54:00.339Z,4.00
2019-01-03T12:56:40.882Z,4.00
2019-01-03T12:59:21.620Z,4.10
2019-01-03T13:02:02.775Z,4.00
2019-01-03T13:04:43.311Z,4.10
2019-01-03T13:07:23.678Z,4.10
2019-01-03T13:10:04.830Z,4.10
2019-01-03T13:12:46.105Z,4.10
2019-01-03T13:15:26.960Z,4.10
2019-01-03T13:18:07.900Z,4.10
2019-01-03T13:20:48.905Z,4.10
2019-01-03T13:23:29.235Z,4.00
2019-01-03T13:26:10.116Z,4.10
2019-01-03T13:28:50.865Z,4.10
2019-01-03T13:31:31.250Z,4.10
2019-01-03T13:34:12.011Z,4.10
2019-01-03T13:36:52.483Z,4.10
2019-01-03T13:39:33.070Z,4.20
2019-01-03T13:42:13.731Z,4.20
2019-01-03T13:44:54.072Z,4.20
2019-01-03T13:47:34.881Z,4.20
2019-01-03T13:50:15.444Z,4.20
2019-01-03T13:52:55.820Z,4.10
2019-01-03T13:55:36.356Z,4.10
2019-01-03T13:58:17.182Z,4.20
2019-01-03T14:00:58.086Z,4.10
2019-01-03T14:03:38.863Z,4.20
2019-01-03T14:06:19.547Z,4.20
2019-01-03T14:09:00.297Z,4.10
2019-01-03T14:11:41.598Z,4.00
2019-01-03T14:14:22.438Z,4.00
2019-01-03T14:17:02.942Z,4.00
2019-01-03T14:19:43.839Z,4.10
2019-01-03T14:22:25.096Z,4.20
2019-01-03T14:25:06.059Z,4.10
2019-01-03T14:27:46.737Z,4.10
2019-01-03T14:30:27.446Z,4.10
2019-01-03T14:33:08.627Z,4.10
2019-01-03T14:35:49.265Z,4.10
2019-01-03T14:38:29.538Z,4.10
2019-01-03T14:41:10.670Z,4.10
2019-01-03T14:43:51.543Z,4.10
2019-01-03T14:46:32.355Z,4.10
2019-01-03T14:49:12.918Z,4.00
2019-01-03T14:51:53.713Z,4.00
2019-01-03T14:54:34.373Z,4.00
2019-01-03T14:57:15.693Z,4.00
2019-01-03T14:59:56.061Z,4.00
2019-01-03T15:02:36.863Z,4.00
2019-01-03T15:05:17.593Z,4.00
2019-01-03T15:07:58.026Z,3.90
2019-01-03T15:10:38.613Z,3.90
2019-01-03T15:13:19.546Z,3.80
2019-01-03T15:16:00.929Z,3.90
2019-01-03T15:18:41.688Z,3.90
2019-01-03T15:21:22.567Z,3.90
2019-01-03T15:24:02.938Z,3.70
2019-01-03T15:26:44.029Z,3.90
2019-01-03T15:29:24.608Z,3.80
2019-01-03T15:32:05.083Z,3.80
2019-01-03T15:34:45.878Z,3.80
2019-01-03T15:37:26.584Z,3.70
2019-01-03T15:40:07.266Z,3.70
2019-01-03T15:42:47.929Z,3.60
2019-01-03T15:45:28.371Z,3.60
2019-01-03T15:48:09.099Z,3.60
2019-01-03T15:50:49.874Z,3.60
2019-01-03T15:53:30.846Z,3.60
2019-01-03T15:56:11.741Z,3.60
2019-01-03T15:58:52.637Z,3.60
2019-01-03T16:01:33.305Z,3.60
2019-01-03T16:04:13.834Z,3.50
2019-01-03T16:06:54.389Z,3.40
2019-01-03T16:09:34.913Z,3.50
2019-01-03T16:12:16.122Z,3.40
2019-01-03T16:14:56.582Z,3.50
2019-01-03T16:17:37.016Z,3.50
2019-01-03T16:20:17.702Z,3.50
2019-01-03T16:22:58.930Z,3.50
2019-01-03T16:25:40.150Z,3.50
2019-01-03T16:28:20.978Z,3.50
2019-01-03T16:31:01.908Z,3.50
2019-01-03T16:33:42.641Z,3.50
2019-01-03T16:36:23.374Z,3.60
2019-01-03T16:39:04.062Z,3.50
2019-01-03T16:41:44.596Z,3.50
2019-01-03T16:44:25.291Z,3.60
2019-01-03T16:47:06.030Z,3.60
2019-01-03T16:49:47.250Z,3.60
2019-01-03T16:52:27.685Z,3.60
2019-01-03T16:55:08.514Z,3.60
2019-01-03T16:57:49.238Z,3.60
2019-01-03T17:00:29.998Z,3.60
2019-01-03T17:03:10.590Z,3.60
2019-01-03T17:05:51.154Z,3.50
2019-01-03T17:08:32.153Z,3.60
2019-01-03T17:11:13.091Z,3.60
2019-01-03T17:13:54.304Z,3.60
2019-01-03T17:16:35.394Z,3.60
2019-01-03T17:19:16.151Z,3.60
2019-01-03T17:21:56.680Z,3.60
2019-01-03T17:24:37.547Z,3.60
2019-01-03T17:27:18.332Z,3.60
2019-01-03T17:29:59.041Z,3.60
2019-01-03T17:32:39.834Z,3.60
2019-01-03T17:35:20.679Z,3.60
2019-01-03T17:38:01.266Z,3.60
2019-01-03T17:40:42.038Z,3.60
2019-01-03T17:43:22.821Z,3.50
2019-01-03T17:46:03.559Z,3.50
2019-01-03T17:48:44.193Z,3.50
2019-01-03T17:51:24.705Z,3.40
2019-01-03T17:54:05.250Z,3.40
2019-01-03T17:56:45.606Z,3.30
2019-01-03T17:59:26.446Z,3.20
2019-01-03T18:02:07.289Z,3.20
2019-01-03T18:04:47.879Z,3.20
2019-01-03T18:07:28.563Z,3.10
2019-01-03T18:10:09.154Z,3.10
2019-01-03T18:12:49.971Z,2.90
2019-01-03T18:15:30.811Z,2.90
2019-01-03T18:18:11.543Z,2.70
2019-01-03T18:20:52.489Z,2.70
2019-01-03T18:23:32.961Z,2.70
2019-01-03T18:26:13.731Z,2.70
2019-01-03T18:28:54.388Z,2.60
2019-01-03T18:31:34.825Z,2.60
2019-01-03T18:34:15.334Z,2.60
2019-01-03T18:36:56.089Z,2.50
2019-01-03T18:39:36.518Z,2.50
2019-01-03T18:42:17.393Z,2.50
2019-01-03T18:44:57.734Z,2.50
2019-01-03T18:47:38.658Z,2.40
2019-01-03T18:50:19.346Z,2.40
2019-01-03T18:53:00.179Z,2.30
2019-01-03T18:55:41.186Z,2.30
2019-01-03T18:58:22.063Z,2.30
2019-01-03T19:01:02.534Z,2.30
2019-01-03T19:03:43.076Z,2.30
2019-01-03T19:06:23.735Z,2.30
2019-01-03T19:09:04.383Z,2.20
2019-01-03T19:11:45.267Z,2.20
2019-01-03T19:14:26.222Z,2.20
2019-01-03T19:17:06.954Z,2.20
2019-01-03T19:19:47.533Z,2.20
2019-01-03T19:22:28.572Z,2.20
2019-01-03T19:25:09.318Z,2.20
2019-01-03T19:27:49.698Z,2.20
2019-01-03T19:30:30.726Z,2.20
2019-01-03T19:33:11.273Z,2.20
2019-01-03T19:35:51.768Z,2.30
2019-01-03T19:38:32.718Z,2.30
2019-01-03T19:41:13.334Z,2.30
2019-01-03T19:43:54.083Z,2.30
2019-01-03T19:46:34.534Z,2.30
2019-01-03T19:49:15.286Z,2.40
2019-01-03T19:51:56.078Z,2.40
2019-01-03T19:54:36.837Z,2.50
2019-01-03T19:57:17.366Z,2.50
2019-01-03T19:59:57.931Z,2.60
2019-01-03T20:02:38.415Z,2.60
2019-01-03T20:05:19.235Z,2.70
2019-01-03T20:08:00.255Z,2.70
2019-01-03T20:10:40.653Z,2.70
2019-01-03T20:13:21.482Z,2.70
2019-01-03T20:16:02.153Z,2.70
2019-01-03T20:18:42.658Z,2.70
2019-01-03T20:21:23.175Z,2.70
2019-01-03T20:24:03.799Z,2.70
2019-01-03T20:26:44.391Z,2.70
2019-01-03T20:29:25.005Z,2.70
2019-01-03T20:32:05.947Z,2.70
2019-01-03T20:34:46.371Z,2.70
2019-01-03T20:37:26.843Z,2.70
2019-01-03T20:40:07.694Z,2.70
2019-01-03T20:42:48.674Z,2.70
2019-01-03T20:45:29.387Z,2.80
2019-01-03T20:48:09.694Z,2.70
2019-01-03T20:50:51.038Z,2.80
2019-01-03T20:53:32.149Z,2.80
2019-01-03T20:56:12.847Z,2.80
2019-01-03T20:58:53.177Z,2.90
2019-01-03T21:01:34.003Z,2.90
2019-01-03T21:04:14.491Z,2.90
2019-01-03T21:06:55.306Z,2.90
2019-01-03T21:09:36.383Z,2.90
2019-01-03T21:12:17.207Z,3.00
2019-01-03T21:14:58.242Z,3.00
2019-01-03T21:17:39.257Z,3.00
2019-01-03T21:20:20.001Z,3.00
2019-01-03T21:23:00.911Z,2.90
2019-01-03T21:25:42.228Z,3.00
2019-01-03T21:28:23.032Z,3.00
2019-01-03T21:31:03.919Z,3.00
2019-01-03T21:33:44.426Z,3.00
2019-01-03T21:36:25.302Z,3.00
2019-01-03T21:39:06.171Z,3.00
2019-01-03T21:41:46.793Z,3.00
2019-01-03T21:44:27.137Z,3.00
2019-01-03T21:47:08.069Z,3.00
2019-01-03T21:49:48.911Z,3.00
2019-01-03T21:52:29.486Z,3.00
2019-01-03T21:55:10.366Z,2.90
2019-01-03T21:57:50.831Z,2.90
2019-01-03T22:00:31.571Z,2.90
2019-01-03T22:03:12.173Z,2.80
2019-01-03T22:05:53.250Z,2.80
2019-01-03T22:08:33.931Z,2.70
2019-01-03T22:11:14.361Z,2.70
2019-01-03T22:13:55.167Z,2.80
2019-01-03T22:16:35.966Z,2.80
2019-01-03T22:19:17.114Z,2.70
2019-01-03T22:21:58.060Z,2.80
2019-01-03T22:24:38.894Z,2.70
2019-01-03T22:27:19.657Z,2.80
2019-01-03T22:30:00.674Z,2.80
2019-01-03T22:32:41.347Z,2.80
2019-01-03T22:35:22.010Z,2.80
2019-01-03T22:38:02.694Z,2.80
2019-01-03T22:40:43.242Z,2.80
2019-01-03T22:43:23.671Z,2.70
2019-01-03T22:46:04.542Z,2.70
2019-01-03T22:48:45.018Z,2.70
2019-01-03T22:51:25.452Z,2.70
2019-01-03T22:54:06.267Z,2.60
2019-01-03T22:56:47.006Z,2.60
2019-01-03T22:59:27.456Z,2.60
2019-01-03T23:02:08.217Z,2.50
2019-01-03T23:04:49.213Z,2.50
2019-01-03T23:07:30.676Z,2.50
2019-01-03T23:10:11.550Z,2.40
2019-01-03T23:12:52.327Z,2.40
2019-01-03T23:15:33.109Z,2.40
2019-01-03T23:18:13.871Z,2.40
2019-01-03T23:20:54.831Z,2.50
2019-01-03T23:23:35.546Z,2.40
2019-01-03T23:26:16.410Z,2.40
2019-01-03T23:28:57.359Z,2.40
2019-01-03T23:31:38.106Z,2.40
2019-01-03T23:34:18.634Z,2.40
2019-01-03T23:36:59.518Z,2.40
2019-01-03T23:39:40.306Z,2.40
2019-01-03T23:42:20.920Z,2.30
2019-01-03T23:45:01.841Z,2.40
2019-01-03T23:47:42.503Z,2.40
2019-01-03T23:50:24.103Z,2.40
2019-01-03T23:53:04.748Z,2.40
2019-01-03T23:55:45.127Z,2.40
2019-01-03T23:58:25.423Z,2.40
